sensor_id;sensor_type;location;lat;lon;timestamp;P1;durP1;ratioP1;P2;durP2;ratioP2
20832;SDS011;56075;51.264;7.150;2022-12-26T00:02:26;23.85;;;9.00;;
20832;SDS011;56075;51.264;7.150;2022-12-26T00:04:57;23.42;;;9.27;;
20832;SDS011;56075;51.264;7.150;2022-12-26T00:07:28;22.80;;;8.88;;
20832;SDS011;56075;51.264;7.150;2022-12-26T00:09:59;23.85;;;8.50;;
20832;SDS011;56075;51.264;7.150;2022-12-26T00:12:30;21.35;;;8.32;;
20832;SDS011;56075;51.264;7.150;2022-12-26T00:15:01;17.70;;;7.43;;
20832;SDS011;56075;51.264;7.150;2022-12-26T00:17:33;20.00;;;7.15;;
20832;SDS011;56075;51.264;7.150;2022-12-26T00:20:04;18.85;;;7.15;;
20832;SDS011;56075;51.264;7.150;2022-12-26T00:22:36;15.75;;;6.93;;
20832;SDS011;56075;51.264;7.150;2022-12-26T00:25:07;14.48;;;7.15;;
20832;SDS011;56075;51.264;7.150;2022-12-26T00:27:38;16.83;;;6.90;;
20832;SDS011;56075;51.264;7.150;2022-12-26T00:30:09;15.82;;;7.13;;
20832;SDS011;56075;51.264;7.150;2022-12-26T00:32:41;15.02;;;6.85;;
20832;SDS011;56075;51.264;7.150;2022-12-26T00:35:12;13.65;;;6.38;;
20832;SDS011;56075;51.264;7.150;2022-12-26T00:37:43;17.55;;;6.40;;
20832;SDS011;56075;51.264;7.150;2022-12-26T00:40:14;11.95;;;5.65;;
20832;SDS011;56075;51.264;7.150;2022-12-26T00:42:45;17.38;;;5.60;;
20832;SDS011;56075;51.264;7.150;2022-12-26T00:45:16;11.43;;;4.85;;
20832;SDS011;56075;51.264;7.150;2022-12-26T00:47:47;12.02;;;5.07;;
20832;SDS011;56075;51.264;7.150;2022-12-26T00:50:19;11.13;;;4.55;;
20832;SDS011;56075;51.264;7.150;2022-12-26T00:52:50;11.00;;;4.32;;
20832;SDS011;56075;51.264;7.150;2022-12-26T00:55:21;9.32;;;3.95;;
20832;SDS011;56075;51.264;7.150;2022-12-26T00:57:52;6.72;;;3.75;;
20832;SDS011;56075;51.264;7.150;2022-12-26T01:00:23;10.15;;;3.58;;
20832;SDS011;56075;51.264;7.150;2022-12-26T01:02:54;8.52;;;3.28;;
20832;SDS011;56075;51.264;7.150;2022-12-26T01:05:26;7.35;;;3.20;;
20832;SDS011;56075;51.264;7.150;2022-12-26T01:07:57;7.57;;;3.10;;
20832;SDS011;56075;51.264;7.150;2022-12-26T01:10:28;7.75;;;2.95;;
20832;SDS011;56075;51.264;7.150;2022-12-26T01:12:59;6.10;;;2.53;;
20832;SDS011;56075;51.264;7.150;2022-12-26T01:15:30;7.90;;;3.03;;
20832;SDS011;56075;51.264;7.150;2022-12-26T01:18:01;7.50;;;2.30;;
20832;SDS011;56075;51.264;7.150;2022-12-26T01:20:32;8.45;;;2.72;;
20832;SDS011;56075;51.264;7.150;2022-12-26T01:23:03;5.82;;;2.67;;
20832;SDS011;56075;51.264;7.150;2022-12-26T01:25:35;4.40;;;2.15;;
20832;SDS011;56075;51.264;7.150;2022-12-26T01:28:06;6.18;;;2.70;;
20832;SDS011;56075;51.264;7.150;2022-12-26T01:30:37;7.20;;;2.55;;
20832;SDS011;56075;51.264;7.150;2022-12-26T01:33:08;7.47;;;2.30;;
20832;SDS011;56075;51.264;7.150;2022-12-26T01:35:47;5.03;;;2.42;;
20832;SDS011;56075;51.264;7.150;2022-12-26T01:38:19;6.07;;;2.40;;
20832;SDS011;56075;51.264;7.150;2022-12-26T01:40:51;7.22;;;2.13;;
20832;SDS011;56075;51.264;7.150;2022-12-26T01:43:46;7.43;;;2.38;;
20832;SDS011;56075;51.264;7.150;2022-12-26T01:46:39;8.48;;;2.33;;
20832;SDS011;56075;51.264;7.150;2022-12-26T01:51:52;6.40;;;2.33;;
20832;SDS011;56075;51.264;7.150;2022-12-26T01:54:29;6.55;;;2.45;;
20832;SDS011;56075;51.264;7.150;2022-12-26T01:57:02;6.75;;;2.47;;
20832;SDS011;56075;51.264;7.150;2022-12-26T01:59:36;7.05;;;2.60;;
20832;SDS011;56075;51.264;7.150;2022-12-26T02:02:10;5.35;;;2.33;;
20832;SDS011;56075;51.264;7.150;2022-12-26T02:04:43;8.30;;;2.67;;
20832;SDS011;56075;51.264;7.150;2022-12-26T02:07:37;6.72;;;2.55;;
20832;SDS011;56075;51.264;7.150;2022-12-26T02:10:12;6.97;;;2.72;;
20832;SDS011;56075;51.264;7.150;2022-12-26T02:12:46;5.72;;;2.63;;
20832;SDS011;56075;51.264;7.150;2022-12-26T02:15:19;9.60;;;2.80;;
20832;SDS011;56075;51.264;7.150;2022-12-26T02:17:50;5.53;;;2.60;;
20832;SDS011;56075;51.264;7.150;2022-12-26T02:20:26;10.35;;;3.10;;
20832;SDS011;56075;51.264;7.150;2022-12-26T02:26:16;10.05;;;3.10;;
20832;SDS011;56075;51.264;7.150;2022-12-26T02:38:39;10.45;;;3.88;;
20832;SDS011;56075;51.264;7.150;2022-12-26T02:47:19;14.77;;;3.58;;
20832;SDS011;56075;51.264;7.150;2022-12-26T02:50:12;8.90;;;3.67;;
20832;SDS011;56075;51.264;7.150;2022-12-26T02:53:36;8.60;;;3.42;;
20832;SDS011;56075;51.264;7.150;2022-12-26T02:56:41;8.70;;;3.80;;
20832;SDS011;56075;51.264;7.150;2022-12-26T03:06:01;14.82;;;4.13;;
20832;SDS011;56075;51.264;7.150;2022-12-26T03:08:56;12.48;;;3.85;;
20832;SDS011;56075;51.264;7.150;2022-12-26T03:11:52;7.70;;;3.80;;
20832;SDS011;56075;51.264;7.150;2022-12-26T03:14:54;8.60;;;3.85;;
20832;SDS011;56075;51.264;7.150;2022-12-26T03:20:03;8.13;;;3.40;;
20832;SDS011;56075;51.264;7.150;2022-12-26T03:28:54;7.97;;;3.30;;
20832;SDS011;56075;51.264;7.150;2022-12-26T03:31:45;10.43;;;3.92;;
20832;SDS011;56075;51.264;7.150;2022-12-26T03:34:16;7.00;;;3.80;;
20832;SDS011;56075;51.264;7.150;2022-12-26T03:43:21;7.40;;;4.13;;
20832;SDS011;56075;51.264;7.150;2022-12-26T03:46:34;7.20;;;3.53;;
20832;SDS011;56075;51.264;7.150;2022-12-26T03:49:32;9.32;;;3.85;;
20832;SDS011;56075;51.264;7.150;2022-12-26T03:52:34;8.30;;;3.80;;
20832;SDS011;56075;51.264;7.150;2022-12-26T03:55:44;6.32;;;3.80;;
20832;SDS011;56075;51.264;7.150;2022-12-26T03:59:11;7.63;;;4.25;;
20832;SDS011;56075;51.264;7.150;2022-12-26T04:02:04;7.95;;;4.10;;
20832;SDS011;56075;51.264;7.150;2022-12-26T04:04:57;6.50;;;4.10;;
20832;SDS011;56075;51.264;7.150;2022-12-26T04:07:54;9.38;;;4.35;;
20832;SDS011;56075;51.264;7.150;2022-12-26T04:10:48;7.00;;;4.40;;
20832;SDS011;56075;51.264;7.150;2022-12-26T04:16:49;8.45;;;3.97;;
20832;SDS011;56075;51.264;7.150;2022-12-26T04:19:56;10.15;;;4.22;;
20832;SDS011;56075;51.264;7.150;2022-12-26T04:22:49;9.88;;;4.32;;
20832;SDS011;56075;51.264;7.150;2022-12-26T04:26:13;9.80;;;4.22;;
20832;SDS011;56075;51.264;7.150;2022-12-26T04:29:12;7.15;;;4.10;;
20832;SDS011;56075;51.264;7.150;2022-12-26T04:32:04;6.40;;;3.60;;
20832;SDS011;56075;51.264;7.150;2022-12-26T04:38:01;6.63;;;3.75;;
20832;SDS011;56075;51.264;7.150;2022-12-26T04:40:54;8.15;;;3.92;;
20832;SDS011;56075;51.264;7.150;2022-12-26T04:43:47;7.18;;;3.80;;
20832;SDS011;56075;51.264;7.150;2022-12-26T04:46:55;9.32;;;4.40;;
20832;SDS011;56075;51.264;7.150;2022-12-26T04:49:26;8.90;;;3.95;;
20832;SDS011;56075;51.264;7.150;2022-12-26T04:52:16;6.43;;;3.72;;
20832;SDS011;56075;51.264;7.150;2022-12-26T04:54:47;9.00;;;3.75;;
20832;SDS011;56075;51.264;7.150;2022-12-26T04:57:18;6.38;;;3.38;;
20832;SDS011;56075;51.264;7.150;2022-12-26T04:59:49;7.25;;;3.72;;
20832;SDS011;56075;51.264;7.150;2022-12-26T05:02:20;6.88;;;3.90;;
20832;SDS011;56075;51.264;7.150;2022-12-26T05:05:10;8.20;;;3.88;;
20832;SDS011;56075;51.264;7.150;2022-12-26T05:08:01;8.27;;;3.92;;
20832;SDS011;56075;51.264;7.150;2022-12-26T05:10:51;6.82;;;3.80;;
20832;SDS011;56075;51.264;7.150;2022-12-26T05:13:22;7.03;;;3.85;;
20832;SDS011;56075;51.264;7.150;2022-12-26T05:15:53;6.50;;;3.47;;
20832;SDS011;56075;51.264;7.150;2022-12-26T05:18:43;6.28;;;3.85;;
20832;SDS011;56075;51.264;7.150;2022-12-26T05:21:33;8.13;;;4.22;;
20832;SDS011;56075;51.264;7.150;2022-12-26T05:24:23;7.07;;;4.22;;
20832;SDS011;56075;51.264;7.150;2022-12-26T05:27:16;9.10;;;4.57;;
20832;SDS011;56075;51.264;7.150;2022-12-26T05:30:06;7.18;;;4.18;;
20832;SDS011;56075;51.264;7.150;2022-12-26T05:32:38;7.22;;;4.18;;
20832;SDS011;56075;51.264;7.150;2022-12-26T05:35:27;9.55;;;4.72;;
20832;SDS011;56075;51.264;7.150;2022-12-26T05:37:59;8.05;;;4.57;;
20832;SDS011;56075;51.264;7.150;2022-12-26T05:40:30;9.02;;;4.85;;
20832;SDS011;56075;51.264;7.150;2022-12-26T05:43:01;9.35;;;4.82;;
20832;SDS011;56075;51.264;7.150;2022-12-26T05:45:32;8.27;;;4.53;;
20832;SDS011;56075;51.264;7.150;2022-12-26T05:48:03;10.00;;;5.38;;
20832;SDS011;56075;51.264;7.150;2022-12-26T05:50:35;11.02;;;4.90;;
20832;SDS011;56075;51.264;7.150;2022-12-26T05:53:06;10.98;;;5.13;;
20832;SDS011;56075;51.264;7.150;2022-12-26T05:55:38;9.43;;;5.05;;
20832;SDS011;56075;51.264;7.150;2022-12-26T05:58:09;12.88;;;5.60;;
20832;SDS011;56075;51.264;7.150;2022-12-26T06:00:40;10.07;;;5.05;;
20832;SDS011;56075;51.264;7.150;2022-12-26T06:03:12;12.77;;;5.65;;
20832;SDS011;56075;51.264;7.150;2022-12-26T06:05:43;10.98;;;5.20;;
20832;SDS011;56075;51.264;7.150;2022-12-26T06:08:14;10.95;;;5.07;;
20832;SDS011;56075;51.264;7.150;2022-12-26T06:10:45;10.57;;;5.40;;
20832;SDS011;56075;51.264;7.150;2022-12-26T06:13:17;9.98;;;5.43;;
20832;SDS011;56075;51.264;7.150;2022-12-26T06:15:48;12.55;;;6.95;;
20832;SDS011;56075;51.264;7.150;2022-12-26T06:18:19;10.48;;;6.22;;
20832;SDS011;56075;51.264;7.150;2022-12-26T06:20:50;13.05;;;6.80;;
20832;SDS011;56075;51.264;7.150;2022-12-26T06:23:22;14.32;;;7.40;;
20832;SDS011;56075;51.264;7.150;2022-12-26T06:25:56;14.63;;;6.85;;
20832;SDS011;56075;51.264;7.150;2022-12-26T06:28:28;13.30;;;6.95;;
20832;SDS011;56075;51.264;7.150;2022-12-26T06:31:02;13.70;;;6.85;;
20832;SDS011;56075;51.264;7.150;2022-12-26T06:33:35;11.77;;;6.70;;
20832;SDS011;56075;51.264;7.150;2022-12-26T06:36:08;12.95;;;6.90;;
20832;SDS011;56075;51.264;7.150;2022-12-26T06:38:41;14.13;;;6.80;;
20832;SDS011;56075;51.264;7.150;2022-12-26T06:41:14;13.55;;;6.35;;
20832;SDS011;56075;51.264;7.150;2022-12-26T06:43:47;12.00;;;5.72;;
20832;SDS011;56075;51.264;7.150;2022-12-26T06:46:20;11.75;;;5.68;;
20832;SDS011;56075;51.264;7.150;2022-12-26T06:48:52;16.52;;;6.25;;
20832;SDS011;56075;51.264;7.150;2022-12-26T06:51:24;12.60;;;6.73;;
20832;SDS011;56075;51.264;7.150;2022-12-26T06:53:57;15.75;;;7.75;;
20832;SDS011;56075;51.264;7.150;2022-12-26T06:56:30;12.65;;;7.50;;
20832;SDS011;56075;51.264;7.150;2022-12-26T06:59:04;14.38;;;8.25;;
20832;SDS011;56075;51.264;7.150;2022-12-26T07:01:36;16.10;;;8.77;;
20832;SDS011;56075;51.264;7.150;2022-12-26T07:04:08;16.50;;;8.18;;
20832;SDS011;56075;51.264;7.150;2022-12-26T07:06:41;11.90;;;7.30;;
20832;SDS011;56075;51.264;7.150;2022-12-26T07:09:14;12.30;;;6.75;;
20832;SDS011;56075;51.264;7.150;2022-12-26T07:11:48;9.02;;;5.88;;
20832;SDS011;56075;51.264;7.150;2022-12-26T07:14:19;10.75;;;5.30;;
20832;SDS011;56075;51.264;7.150;2022-12-26T07:16:51;7.43;;;4.88;;
20832;SDS011;56075;51.264;7.150;2022-12-26T07:19:22;7.38;;;4.47;;
20832;SDS011;56075;51.264;7.150;2022-12-26T07:21:53;10.25;;;4.57;;
20832;SDS011;56075;51.264;7.150;2022-12-26T07:24:24;8.00;;;3.83;;
20832;SDS011;56075;51.264;7.150;2022-12-26T07:26:55;6.68;;;3.78;;
20832;SDS011;56075;51.264;7.150;2022-12-26T07:29:26;6.80;;;3.58;;
20832;SDS011;56075;51.264;7.150;2022-12-26T07:31:57;8.18;;;3.17;;
20832;SDS011;56075;51.264;7.150;2022-12-26T07:34:29;4.88;;;2.85;;
20832;SDS011;56075;51.264;7.150;2022-12-26T07:37:00;9.35;;;2.72;;
20832;SDS011;56075;51.264;7.150;2022-12-26T07:39:31;4.45;;;2.45;;
20832;SDS011;56075;51.264;7.150;2022-12-26T07:42:03;5.18;;;2.35;;
20832;SDS011;56075;51.264;7.150;2022-12-26T07:44:36;4.60;;;2.00;;
20832;SDS011;56075;51.264;7.150;2022-12-26T07:47:08;4.68;;;2.30;;
20832;SDS011;56075;51.264;7.150;2022-12-26T07:49:39;5.05;;;2.30;;
20832;SDS011;56075;51.264;7.150;2022-12-26T07:52:11;4.55;;;2.50;;
20832;SDS011;56075;51.264;7.150;2022-12-26T07:54:42;4.93;;;2.30;;
20832;SDS011;56075;51.264;7.150;2022-12-26T07:57:13;5.78;;;2.60;;
20832;SDS011;56075;51.264;7.150;2022-12-26T07:59:44;4.18;;;2.40;;
20832;SDS011;56075;51.264;7.150;2022-12-26T08:02:15;5.07;;;2.63;;
20832;SDS011;56075;51.264;7.150;2022-12-26T08:04:46;3.13;;;2.13;;
20832;SDS011;56075;51.264;7.150;2022-12-26T08:07:17;4.38;;;2.00;;
20832;SDS011;56075;51.264;7.150;2022-12-26T08:09:49;3.45;;;1.83;;
20832;SDS011;56075;51.264;7.150;2022-12-26T08:12:20;2.47;;;1.70;;
20832;SDS011;56075;51.264;7.150;2022-12-26T08:14:53;2.65;;;1.58;;
20832;SDS011;56075;51.264;7.150;2022-12-26T08:17:25;2.60;;;1.58;;
20832;SDS011;56075;51.264;7.150;2022-12-26T08:19:56;3.00;;;1.48;;
20832;SDS011;56075;51.264;7.150;2022-12-26T08:22:27;3.28;;;1.42;;
20832;SDS011;56075;51.264;7.150;2022-12-26T08:24:58;2.40;;;1.33;;
20832;SDS011;56075;51.264;7.150;2022-12-26T08:27:29;2.95;;;1.38;;
20832;SDS011;56075;51.264;7.150;2022-12-26T08:30:00;2.53;;;1.10;;
20832;SDS011;56075;51.264;7.150;2022-12-26T08:32:33;2.15;;;1.27;;
20832;SDS011;56075;51.264;7.150;2022-12-26T08:35:05;1.95;;;1.20;;
20832;SDS011;56075;51.264;7.150;2022-12-26T08:37:36;3.05;;;1.10;;
20832;SDS011;56075;51.264;7.150;2022-12-26T08:40:07;2.72;;;1.17;;
20832;SDS011;56075;51.264;7.150;2022-12-26T08:42:39;3.33;;;1.00;;
20832;SDS011;56075;51.264;7.150;2022-12-26T08:45:10;5.90;;;1.13;;
20832;SDS011;56075;51.264;7.150;2022-12-26T08:47:41;2.22;;;1.10;;
20832;SDS011;56075;51.264;7.150;2022-12-26T08:50:12;3.08;;;0.95;;
20832;SDS011;56075;51.264;7.150;2022-12-26T08:52:44;2.95;;;1.30;;
20832;SDS011;56075;51.264;7.150;2022-12-26T08:55:15;2.00;;;1.10;;
20832;SDS011;56075;51.264;7.150;2022-12-26T08:57:46;2.55;;;1.15;;
20832;SDS011;56075;51.264;7.150;2022-12-26T09:00:17;1.33;;;1.02;;
20832;SDS011;56075;51.264;7.150;2022-12-26T09:02:48;3.92;;;1.27;;
20832;SDS011;56075;51.264;7.150;2022-12-26T09:05:20;3.95;;;1.10;;
20832;SDS011;56075;51.264;7.150;2022-12-26T09:07:51;1.77;;;0.90;;
20832;SDS011;56075;51.264;7.150;2022-12-26T09:10:22;3.50;;;1.10;;
20832;SDS011;56075;51.264;7.150;2022-12-26T09:12:53;1.55;;;0.90;;
20832;SDS011;56075;51.264;7.150;2022-12-26T09:15:24;3.15;;;1.00;;
20832;SDS011;56075;51.264;7.150;2022-12-26T09:17:55;1.98;;;0.90;;
20832;SDS011;56075;51.264;7.150;2022-12-26T09:20:27;1.80;;;0.77;;
20832;SDS011;56075;51.264;7.150;2022-12-26T09:22:58;1.80;;;0.80;;
20832;SDS011;56075;51.264;7.150;2022-12-26T09:25:29;3.55;;;0.90;;
20832;SDS011;56075;51.264;7.150;2022-12-26T09:28:01;2.85;;;0.98;;
20832;SDS011;56075;51.264;7.150;2022-12-26T09:30:32;2.10;;;1.00;;
20832;SDS011;56075;51.264;7.150;2022-12-26T09:33:04;1.95;;;0.80;;
20832;SDS011;56075;51.264;7.150;2022-12-26T09:35:40;2.05;;;0.82;;
20832;SDS011;56075;51.264;7.150;2022-12-26T09:38:11;1.58;;;0.95;;
20832;SDS011;56075;51.264;7.150;2022-12-26T09:46:29;2.50;;;1.00;;
20832;SDS011;56075;51.264;7.150;2022-12-26T09:49:17;2.63;;;0.90;;
20832;SDS011;56075;51.264;7.150;2022-12-26T09:51:52;2.70;;;0.80;;
20832;SDS011;56075;51.264;7.150;2022-12-26T09:54:32;2.70;;;0.85;;
20832;SDS011;56075;51.264;7.150;2022-12-26T09:57:14;2.70;;;0.80;;
20832;SDS011;56075;51.264;7.150;2022-12-26T09:59:58;3.38;;;0.82;;
20832;SDS011;56075;51.264;7.150;2022-12-26T10:02:42;2.63;;;0.85;;
20832;SDS011;56075;51.264;7.150;2022-12-26T10:05:22;2.22;;;0.77;;
20832;SDS011;56075;51.264;7.150;2022-12-26T10:11:03;2.10;;;0.90;;
20832;SDS011;56075;51.264;7.150;2022-12-26T10:13:47;2.78;;;0.90;;
20832;SDS011;56075;51.264;7.150;2022-12-26T10:16:26;1.33;;;0.70;;
20832;SDS011;56075;51.264;7.150;2022-12-26T10:19:19;2.95;;;0.80;;
20832;SDS011;56075;51.264;7.150;2022-12-26T10:22:15;1.13;;;0.80;;
20832;SDS011;56075;51.264;7.150;2022-12-26T10:24:58;2.90;;;0.80;;
20832;SDS011;56075;51.264;7.150;2022-12-26T10:27:34;1.95;;;0.73;;
20832;SDS011;56075;51.264;7.150;2022-12-26T10:30:14;2.53;;;0.85;;
20832;SDS011;56075;51.264;7.150;2022-12-26T10:32:58;4.15;;;0.80;;
20832;SDS011;56075;51.264;7.150;2022-12-26T10:35:38;2.50;;;0.60;;
20832;SDS011;56075;51.264;7.150;2022-12-26T10:41:04;2.60;;;0.73;;
20832;SDS011;56075;51.264;7.150;2022-12-26T10:43:44;4.95;;;0.80;;
20832;SDS011;56075;51.264;7.150;2022-12-26T10:46:28;3.95;;;0.80;;
20832;SDS011;56075;51.264;7.150;2022-12-26T10:49:16;2.63;;;0.90;;
20832;SDS011;56075;51.264;7.150;2022-12-26T10:51:52;4.30;;;0.77;;
20832;SDS011;56075;51.264;7.150;2022-12-26T10:54:26;2.55;;;0.70;;
20832;SDS011;56075;51.264;7.150;2022-12-26T10:56:59;4.10;;;0.57;;
20832;SDS011;56075;51.264;7.150;2022-12-26T10:59:39;3.70;;;0.85;;
20832;SDS011;56075;51.264;7.150;2022-12-26T11:02:29;4.43;;;0.98;;
20832;SDS011;56075;51.264;7.150;2022-12-26T11:05:11;2.65;;;1.00;;
20832;SDS011;56075;51.264;7.150;2022-12-26T11:07:50;1.65;;;0.80;;
20832;SDS011;56075;51.264;7.150;2022-12-26T11:10:26;2.33;;;0.60;;
20832;SDS011;56075;51.264;7.150;2022-12-26T11:12:59;3.95;;;0.70;;
20832;SDS011;56075;51.264;7.150;2022-12-26T11:15:40;2.22;;;0.70;;
20832;SDS011;56075;51.264;7.150;2022-12-26T11:18:27;2.03;;;0.70;;
20832;SDS011;56075;51.264;7.150;2022-12-26T11:23:48;5.47;;;1.33;;
20832;SDS011;56075;51.264;7.150;2022-12-26T11:26:23;3.08;;;0.70;;
20832;SDS011;56075;51.264;7.150;2022-12-26T11:29:10;2.78;;;0.60;;
20832;SDS011;56075;51.264;7.150;2022-12-26T11:32:00;4.35;;;0.80;;
20832;SDS011;56075;51.264;7.150;2022-12-26T11:34:39;3.60;;;0.98;;
20832;SDS011;56075;51.264;7.150;2022-12-26T11:37:26;3.13;;;0.70;;
20832;SDS011;56075;51.264;7.150;2022-12-26T11:40:00;4.70;;;0.60;;
20832;SDS011;56075;51.264;7.150;2022-12-26T11:42:32;2.45;;;0.50;;
20832;SDS011;56075;51.264;7.150;2022-12-26T11:45:03;2.33;;;0.70;;
20832;SDS011;56075;51.264;7.150;2022-12-26T11:47:43;5.18;;;0.82;;
20832;SDS011;56075;51.264;7.150;2022-12-26T11:50:15;2.47;;;0.80;;
20832;SDS011;56075;51.264;7.150;2022-12-26T11:52:53;1.40;;;0.70;;
20832;SDS011;56075;51.264;7.150;2022-12-26T11:55:37;4.82;;;0.90;;
20832;SDS011;56075;51.264;7.150;2022-12-26T12:03:21;5.60;;;0.68;;
20832;SDS011;56075;51.264;7.150;2022-12-26T12:12:00;2.33;;;0.60;;
20832;SDS011;56075;51.264;7.150;2022-12-26T12:17:42;2.60;;;0.63;;
20832;SDS011;56075;51.264;7.150;2022-12-26T12:26:19;3.60;;;0.40;;
20832;SDS011;56075;51.264;7.150;2022-12-26T12:29:07;1.55;;;0.40;;
20832;SDS011;56075;51.264;7.150;2022-12-26T12:31:53;1.98;;;0.50;;
20832;SDS011;56075;51.264;7.150;2022-12-26T12:46:22;1.73;;;1.07;;
20832;SDS011;56075;51.264;7.150;2022-12-26T12:57:48;3.03;;;1.35;;
20832;SDS011;56075;51.264;7.150;2022-12-26T13:00:25;6.23;;;1.30;;
20832;SDS011;56075;51.264;7.150;2022-12-26T13:03:01;3.37;;;1.30;;
20832;SDS011;56075;51.264;7.150;2022-12-26T13:05:46;4.18;;;1.38;;
20832;SDS011;56075;51.264;7.150;2022-12-26T13:08:31;3.43;;;1.47;;
20832;SDS011;56075;51.264;7.150;2022-12-26T13:14:07;5.27;;;1.30;;
20832;SDS011;56075;51.264;7.150;2022-12-26T13:16:47;3.73;;;1.53;;
20832;SDS011;56075;51.264;7.150;2022-12-26T13:19:25;5.83;;;1.40;;
20832;SDS011;56075;51.264;7.150;2022-12-26T13:22:01;5.40;;;1.70;;
20832;SDS011;56075;51.264;7.150;2022-12-26T13:24:40;7.77;;;1.60;;
20832;SDS011;56075;51.264;7.150;2022-12-26T13:27:17;5.77;;;1.67;;
20832;SDS011;56075;51.264;7.150;2022-12-26T13:30:01;3.47;;;1.40;;
20832;SDS011;56075;51.264;7.150;2022-12-26T13:32:45;3.27;;;1.10;;
20832;SDS011;56075;51.264;7.150;2022-12-26T13:41:25;4.17;;;0.90;;
20832;SDS011;56075;51.264;7.150;2022-12-26T13:49:26;1.40;;;0.60;;
20832;SDS011;56075;51.264;7.150;2022-12-26T14:07:29;4.37;;;1.17;;
20832;SDS011;56075;51.264;7.150;2022-12-26T14:10:20;2.87;;;1.00;;
20832;SDS011;56075;51.264;7.150;2022-12-26T14:15:31;5.70;;;1.00;;
20832;SDS011;56075;51.264;7.150;2022-12-26T14:18:12;3.67;;;1.27;;
20832;SDS011;56075;51.264;7.150;2022-12-26T14:23:58;5.30;;;1.37;;
20832;SDS011;56075;51.264;7.150;2022-12-26T14:26:33;3.13;;;1.20;;
20832;SDS011;56075;51.264;7.150;2022-12-26T14:40:24;7.03;;;2.30;;
20832;SDS011;56075;51.264;7.150;2022-12-26T14:50:49;5.83;;;1.53;;
20832;SDS011;56075;51.264;7.150;2022-12-26T14:58:45;8.07;;;2.03;;
20832;SDS011;56075;51.264;7.150;2022-12-26T15:03:58;4.33;;;1.60;;
20832;SDS011;56075;51.264;7.150;2022-12-26T15:06:44;4.30;;;1.20;;
20832;SDS011;56075;51.264;7.150;2022-12-26T15:09:46;7.70;;;1.30;;
20832;SDS011;56075;51.264;7.150;2022-12-26T15:15:21;7.00;;;1.50;;
20832;SDS011;56075;51.264;7.150;2022-12-26T15:20:58;4.83;;;1.67;;
20832;SDS011;56075;51.264;7.150;2022-12-26T15:29:38;3.73;;;1.80;;
20832;SDS011;56075;51.264;7.150;2022-12-26T15:33:09;5.67;;;1.80;;
20832;SDS011;56075;51.264;7.150;2022-12-26T15:35:43;8.17;;;2.73;;
20832;SDS011;56075;51.264;7.150;2022-12-26T15:46:20;9.83;;;3.03;;
20832;SDS011;56075;51.264;7.150;2022-12-26T15:58:01;13.30;;;4.10;;
20832;SDS011;56075;51.264;7.150;2022-12-26T16:00:37;15.83;;;4.17;;
20832;SDS011;56075;51.264;7.150;2022-12-26T16:04:03;14.27;;;4.30;;
20832;SDS011;56075;51.264;7.150;2022-12-26T16:06:26;7.93;;;3.43;;
20832;SDS011;56075;51.264;7.150;2022-12-26T16:19:45;6.47;;;2.40;;
20832;SDS011;56075;51.264;7.150;2022-12-26T16:22:29;10.00;;;2.30;;
20832;SDS011;56075;51.264;7.150;2022-12-26T16:25:23;6.17;;;1.70;;
20832;SDS011;56075;51.264;7.150;2022-12-26T16:27:56;4.73;;;1.90;;
20832;SDS011;56075;51.264;7.150;2022-12-26T16:30:30;8.63;;;2.13;;
20832;SDS011;56075;51.264;7.150;2022-12-26T16:33:05;8.60;;;2.20;;
20832;SDS011;56075;51.264;7.150;2022-12-26T16:35:38;7.37;;;1.60;;
20832;SDS011;56075;51.264;7.150;2022-12-26T16:38:13;10.43;;;1.80;;
20832;SDS011;56075;51.264;7.150;2022-12-26T16:40:49;5.83;;;1.73;;
20832;SDS011;56075;51.264;7.150;2022-12-26T16:43:22;4.40;;;1.37;;
20832;SDS011;56075;51.264;7.150;2022-12-26T16:45:57;4.33;;;1.60;;
20832;SDS011;56075;51.264;7.150;2022-12-26T16:48:31;5.83;;;2.00;;
20832;SDS011;56075;51.264;7.150;2022-12-26T16:51:04;5.40;;;1.37;;
20832;SDS011;56075;51.264;7.150;2022-12-26T16:58:52;4.83;;;1.37;;
20832;SDS011;56075;51.264;7.150;2022-12-26T17:01:25;5.13;;;1.53;;
20832;SDS011;56075;51.264;7.150;2022-12-26T17:04:01;3.90;;;1.40;;
20832;SDS011;56075;51.264;7.150;2022-12-26T17:06:35;6.80;;;1.30;;
20832;SDS011;56075;51.264;7.150;2022-12-26T17:09:11;2.93;;;1.40;;
20832;SDS011;56075;51.264;7.150;2022-12-26T17:11:45;5.27;;;1.63;;
20832;SDS011;56075;51.264;7.150;2022-12-26T17:14:22;6.17;;;1.20;;
20832;SDS011;56075;51.264;7.150;2022-12-26T17:16:59;6.00;;;1.57;;
20832;SDS011;56075;51.264;7.150;2022-12-26T17:19:32;5.17;;;1.37;;
20832;SDS011;56075;51.264;7.150;2022-12-26T17:24:47;5.70;;;1.60;;
20832;SDS011;56075;51.264;7.150;2022-12-26T17:27:23;3.67;;;1.40;;
20832;SDS011;56075;51.264;7.150;2022-12-26T17:32:34;7.87;;;1.40;;
20832;SDS011;56075;51.264;7.150;2022-12-26T17:35:09;4.77;;;1.30;;
20832;SDS011;56075;51.264;7.150;2022-12-26T17:37:41;5.10;;;1.17;;
20832;SDS011;56075;51.264;7.150;2022-12-26T17:42:51;5.53;;;1.50;;
20832;SDS011;56075;51.264;7.150;2022-12-26T17:45:24;6.07;;;1.17;;
20832;SDS011;56075;51.264;7.150;2022-12-26T17:47:56;5.77;;;1.43;;
20832;SDS011;56075;51.264;7.150;2022-12-26T17:50:28;6.07;;;1.00;;
20832;SDS011;56075;51.264;7.150;2022-12-26T17:53:01;3.00;;;1.10;;
20832;SDS011;56075;51.264;7.150;2022-12-26T17:55:33;4.47;;;1.10;;
20832;SDS011;56075;51.264;7.150;2022-12-26T17:58:07;5.50;;;1.63;;
20832;SDS011;56075;51.264;7.150;2022-12-26T18:00:43;2.83;;;1.23;;
20832;SDS011;56075;51.264;7.150;2022-12-26T18:03:15;3.83;;;1.40;;
20832;SDS011;56075;51.264;7.150;2022-12-26T18:05:46;4.70;;;1.10;;
20832;SDS011;56075;51.264;7.150;2022-12-26T18:08:22;9.40;;;1.73;;
20832;SDS011;56075;51.264;7.150;2022-12-26T18:10:54;5.63;;;1.10;;
20832;SDS011;56075;51.264;7.150;2022-12-26T18:13:26;5.27;;;1.50;;
20832;SDS011;56075;51.264;7.150;2022-12-26T18:15:58;3.10;;;1.17;;
20832;SDS011;56075;51.264;7.150;2022-12-26T18:18:35;3.57;;;1.00;;
20832;SDS011;56075;51.264;7.150;2022-12-26T18:21:09;2.77;;;1.00;;
20832;SDS011;56075;51.264;7.150;2022-12-26T18:23:42;3.87;;;0.77;;
20832;SDS011;56075;51.264;7.150;2022-12-26T18:26:22;4.13;;;1.10;;
20832;SDS011;56075;51.264;7.150;2022-12-26T18:28:54;3.50;;;1.20;;
20832;SDS011;56075;51.264;7.150;2022-12-26T18:31:26;7.60;;;1.10;;
20832;SDS011;56075;51.264;7.150;2022-12-26T18:33:57;4.17;;;0.90;;
20832;SDS011;56075;51.264;7.150;2022-12-26T18:36:30;5.07;;;1.10;;
20832;SDS011;56075;51.264;7.150;2022-12-26T18:39:04;4.57;;;0.90;;
20832;SDS011;56075;51.264;7.150;2022-12-26T18:41:35;3.47;;;1.00;;
20832;SDS011;56075;51.264;7.150;2022-12-26T18:44:07;5.10;;;1.20;;
20832;SDS011;56075;51.264;7.150;2022-12-26T18:46:39;6.33;;;1.70;;
20832;SDS011;56075;51.264;7.150;2022-12-26T18:49:14;6.90;;;1.50;;
20832;SDS011;56075;51.264;7.150;2022-12-26T18:51:47;6.87;;;1.17;;
20832;SDS011;56075;51.264;7.150;2022-12-26T18:54:19;7.23;;;1.17;;
20832;SDS011;56075;51.264;7.150;2022-12-26T18:56:50;6.13;;;1.17;;
20832;SDS011;56075;51.264;7.150;2022-12-26T18:59:21;7.10;;;1.37;;
20832;SDS011;56075;51.264;7.150;2022-12-26T19:01:52;5.60;;;1.20;;
20832;SDS011;56075;51.264;7.150;2022-12-26T19:04:24;6.83;;;1.37;;
20832;SDS011;56075;51.264;7.150;2022-12-26T19:06:55;3.07;;;0.93;;
20832;SDS011;56075;51.264;7.150;2022-12-26T19:09:27;6.63;;;1.27;;
20832;SDS011;56075;51.264;7.150;2022-12-26T19:11:59;6.90;;;1.30;;
20832;SDS011;56075;51.264;7.150;2022-12-26T19:14:30;6.40;;;1.30;;
20832;SDS011;56075;51.264;7.150;2022-12-26T19:17:01;8.73;;;1.40;;
20832;SDS011;56075;51.264;7.150;2022-12-26T19:19:33;3.53;;;1.00;;
20832;SDS011;56075;51.264;7.150;2022-12-26T19:22:04;6.70;;;1.33;;
20832;SDS011;56075;51.264;7.150;2022-12-26T19:24:36;4.50;;;0.97;;
20832;SDS011;56075;51.264;7.150;2022-12-26T19:27:07;4.40;;;1.20;;